createdAt,value
2019-03-25T00:03:58.357Z,3.566284
2019-03-25T00:09:20.994Z,3.596497
2019-03-25T00:14:43.779Z,3.697205
2019-03-25T00:20:06.547Z,3.838196
2019-03-25T00:25:29.320Z,3.918762
2019-03-25T00:30:51.998Z,3.928833
2019-03-25T00:36:14.755Z,4.039612
2019-03-25T00:41:37.390Z,4.180603
2019-03-25T00:47:00.072Z,4.382019
2019-03-25T00:52:24.259Z,4.472656
2019-03-25T00:57:46.965Z,4.442444
2019-03-25T01:03:09.654Z,4.593506
2019-03-25T01:08:32.342Z,4.674072
2019-03-25T01:13:55.117Z,4.754639
2019-03-25T01:19:17.805Z,4.855347
2019-03-25T01:24:42.397Z,4.865417
2019-03-25T01:30:06.095Z,4.956055
2019-03-25T01:35:28.760Z,4.966125
2019-03-25T01:40:51.406Z,5.117188
2019-03-25T01:46:14.213Z,5.137329
2019-03-25T01:51:37.536Z,5.137329
2019-03-25T01:57:00.219Z,5.298462
2019-03-25T02:02:22.895Z,5.368958
2019-03-25T02:07:46.182Z,5.328674
2019-03-25T02:13:08.916Z,5.409241
2019-03-25T02:18:32.290Z,5.368958
2019-03-25T02:23:54.958Z,5.489807
2019-03-25T02:29:17.626Z,5.449524
2019-03-25T02:34:41.071Z,5.449524
2019-03-25T02:40:03.829Z,5.550232
2019-03-25T02:45:26.520Z,5.65094
2019-03-25T02:50:49.154Z,5.731506
2019-03-25T02:56:11.820Z,5.39917
2019-03-25T03:01:35.552Z,4.533081
2019-03-25T03:06:58.309Z,3.88855
2019-03-25T03:12:20.997Z,3.737488
2019-03-25T03:17:43.710Z,3.63678
2019-03-25T03:23:06.873Z,3.616638
2019-03-25T03:28:30.184Z,3.536072
2019-03-25T03:33:53.817Z,3.455505
2019-03-25T03:39:16.612Z,3.374939
2019-03-25T03:44:39.290Z,3.314514
2019-03-25T03:50:03.415Z,3.153381
2019-03-25T03:55:27.120Z,2.982178
2019-03-25T04:00:49.805Z,2.992249
2019-03-25T04:06:13.074Z,2.972107
2019-03-25T04:11:36.832Z,2.831116
2019-03-25T04:16:59.571Z,2.6297
2019-03-25T04:22:22.279Z,2.528992
2019-03-25T04:27:44.974Z,2.428284
2019-03-25T04:33:07.690Z,2.448425
2019-03-25T04:38:30.525Z,2.498779
2019-03-25T04:43:54.490Z,2.438354
2019-03-25T04:49:15.934Z,2.37793
2019-03-25T04:54:38.617Z,2.398071
2019-03-25T05:00:01.261Z,2.398071
2019-03-25T05:05:24.074Z,2.468567
2019-03-25T05:10:46.905Z,2.498779
2019-03-25T05:16:09.570Z,2.609558
2019-03-25T05:21:32.267Z,2.559204
2019-03-25T05:26:54.931Z,2.6297
2019-03-25T05:32:17.615Z,2.6297
2019-03-25T05:37:40.287Z,2.680054
2019-03-25T05:43:03.013Z,2.619629
2019-03-25T05:48:25.669Z,2.498779
2019-03-25T05:53:48.360Z,2.367859
2019-03-25T05:59:11.110Z,2.438354
2019-03-25T06:04:33.788Z,2.549133
2019-03-25T06:09:56.445Z,2.800903
2019-03-25T06:15:19.213Z,3.01239
2019-03-25T06:20:41.857Z,3.123169
2019-03-25T06:26:04.491Z,3.173523
2019-03-25T06:31:27.136Z,3.13324
2019-03-25T06:36:49.777Z,3.586426
2019-03-25T06:42:12.444Z,3.898621
2019-03-25T06:47:35.124Z,4.261169
2019-03-25T06:52:57.820Z,4.241028
2019-03-25T06:58:20.515Z,4.533081
2019-03-25T07:03:43.174Z,4.89563
2019-03-25T07:09:05.911Z,5.167542
2019-03-25T07:14:29.513Z,5.076904
2019-03-25T07:19:52.188Z,5.016479
2019-03-25T07:25:14.875Z,5.167542
2019-03-25T07:30:37.610Z,4.89563
2019-03-25T07:36:00.363Z,4.64386
2019-03-25T07:41:23.012Z,4.492798
2019-03-25T07:46:45.714Z,4.361877
2019-03-25T07:52:09.319Z,4.512939
2019-03-25T07:57:32.247Z,4.543152
2019-03-25T08:02:55.863Z,4.653931
2019-03-25T08:08:18.633Z,5.076904
2019-03-25T08:13:41.346Z,5.550232
2019-03-25T08:19:04.731Z,5.620728
2019-03-25T08:24:27.617Z,5.620728
2019-03-25T08:29:51.452Z,5.953064
2019-03-25T08:35:14.207Z,6.214905
2019-03-25T08:40:36.905Z,6.144409
2019-03-25T08:45:59.549Z,5.882568
2019-03-25T08:51:22.274Z,5.872498
2019-03-25T08:56:45.008Z,5.348816
2019-03-25T09:02:07.688Z,5.056763
2019-03-25T09:07:30.357Z,5.187683
2019-03-25T09:12:53.115Z,5.379028
2019-03-25T09:18:15.792Z,5.600586
2019-03-25T09:23:39.474Z,5.056763
2019-03-25T09:29:02.185Z,5.479736
2019-03-25T09:34:24.941Z,6.02356
2019-03-25T09:39:47.728Z,7.010498
2019-03-25T09:45:10.498Z,6.315613
2019-03-25T09:50:33.168Z,6.194763
2019-03-25T09:55:55.869Z,5.751648
2019-03-25T10:01:18.646Z,5.39917
2019-03-25T10:06:41.346Z,4.925842
2019-03-25T10:12:03.984Z,4.966125
2019-03-25T10:17:26.719Z,5.489807
2019-03-25T10:22:49.425Z,5.661011
2019-03-25T10:28:12.218Z,5.812073
2019-03-25T10:33:35.463Z,6.134338
2019-03-25T10:38:58.089Z,6.597595
2019-03-25T10:44:20.888Z,7.010498
2019-03-25T10:49:43.673Z,7.423401
2019-03-25T10:55:07.637Z,7.211914
2019-03-25T11:00:29.655Z,7.503967
2019-03-25T11:05:52.537Z,7.483826
2019-03-25T11:11:15.311Z,8.178711
2019-03-25T11:16:37.978Z,8.339844
2019-03-25T11:22:00.655Z,8.641968
2019-03-25T11:27:23.279Z,8.702393
2019-03-25T11:32:45.949Z,8.138428
2019-03-25T11:38:08.683Z,7.886658
2019-03-25T11:43:31.338Z,7.050781
2019-03-25T11:48:54.193Z,7.070923
2019-03-25T11:54:17.564Z,7.232056
2019-03-25T11:59:40.238Z,8.470764
2019-03-25T12:05:02.945Z,8.370056
2019-03-25T12:10:25.622Z,9.115295
2019-03-25T12:15:48.465Z,9.699402
2019-03-25T12:21:11.185Z,9.115295
2019-03-25T12:26:34.507Z,9.890747
2019-03-25T12:31:58.121Z,10.907898
2019-03-25T12:37:21.020Z,8.400269
2019-03-25T12:42:43.691Z,8.088074
2019-03-25T12:48:06.832Z,7.937012
2019-03-25T12:53:29.499Z,7.6651
2019-03-25T12:58:52.372Z,7.050781
2019-03-25T13:04:15.363Z,6.114197
2019-03-25T13:09:38.446Z,6.02356
2019-03-25T13:15:01.523Z,5.953064
2019-03-25T13:20:24.541Z,6.134338
2019-03-25T13:25:47.308Z,6.77887
2019-03-25T13:31:10.097Z,7.373047
2019-03-25T13:36:33.038Z,7.725525
2019-03-25T13:41:56.007Z,7.947083
2019-03-25T13:47:18.646Z,7.362976
2019-03-25T13:52:41.461Z,7.111206
2019-03-25T13:58:05.283Z,7.302551
2019-03-25T14:03:28.349Z,7.765808
2019-03-25T14:08:51.103Z,8.641968
2019-03-25T14:14:13.884Z,8.823242
2019-03-25T14:19:36.620Z,7.725525
2019-03-25T14:24:59.226Z,7.473755
2019-03-25T14:30:21.952Z,7.191772
2019-03-25T14:35:44.742Z,5.630798
2019-03-25T14:41:07.514Z,5.368958
2019-03-25T14:46:30.349Z,5.590515
2019-03-25T14:51:53.035Z,5.872498
2019-03-25T14:57:15.726Z,6.637878
2019-03-25T15:02:38.480Z,6.859436
2019-03-25T15:08:01.211Z,7.765808
2019-03-25T15:13:24.378Z,7.524109
2019-03-25T15:18:46.998Z,7.806091
2019-03-25T15:24:09.707Z,8.218994
2019-03-25T15:29:32.421Z,8.359985
2019-03-25T15:34:55.854Z,8.460693
2019-03-25T15:40:18.703Z,7.121277
2019-03-25T15:45:42.841Z,6.758728
2019-03-25T15:51:06.467Z,6.728516
2019-03-25T15:56:29.159Z,6.678162
2019-03-25T16:01:51.951Z,9.29657
2019-03-25T16:07:14.601Z,10.535278
2019-03-25T16:12:37.281Z,8.581543
2019-03-25T16:17:59.988Z,7.473755
2019-03-25T16:23:22.671Z,7.453613
2019-03-25T16:28:45.386Z,8.631897
2019-03-25T16:34:08.146Z,9.981384
2019-03-25T16:39:31.613Z,9.377136
2019-03-25T16:44:54.211Z,8.319702
2019-03-25T16:50:16.931Z,8.03772
2019-03-25T16:55:39.562Z,7.816162
2019-03-25T17:01:09.732Z,7.514038
2019-03-25T17:06:24.889Z,7.181702
2019-03-25T17:11:47.540Z,7.050781
2019-03-25T17:17:10.688Z,6.960144
2019-03-25T17:22:33.412Z,6.688232
2019-03-25T17:27:56.143Z,6.688232
2019-03-25T17:33:18.815Z,6.567383
2019-03-25T17:38:41.591Z,6.53717
2019-03-25T17:44:04.253Z,6.265259
2019-03-25T17:49:26.971Z,6.174622
2019-03-25T17:54:49.631Z,6.245117
2019-03-25T18:00:12.347Z,6.345825
2019-03-25T18:05:35.043Z,6.325684
2019-03-25T18:10:57.723Z,6.27533
2019-03-25T18:16:23.903Z,6.053772
2019-03-25T18:21:46.595Z,5.872498
2019-03-25T18:27:09.320Z,5.751648
2019-03-25T18:32:32.732Z,5.852356
2019-03-25T18:37:55.408Z,5.77179
2019-03-25T18:43:20.164Z,5.78186
2019-03-25T18:48:42.833Z,5.65094
2019-03-25T18:54:05.526Z,5.550232
2019-03-25T18:59:28.266Z,5.731506
2019-03-25T19:04:51.238Z,5.671082
2019-03-25T19:10:14.573Z,5.509949
2019-03-25T19:15:37.828Z,5.691223
2019-03-25T19:21:00.698Z,5.671082
2019-03-25T19:26:23.584Z,5.78186
2019-03-25T19:31:46.429Z,5.661011
2019-03-25T19:37:10.214Z,5.560303
2019-03-25T19:42:32.948Z,5.348816
2019-03-25T19:47:55.740Z,5.419312
2019-03-25T19:53:19.530Z,5.439453
2019-03-25T19:58:41.293Z,5.590515
2019-03-25T20:04:03.961Z,5.469666
2019-03-25T20:09:26.796Z,5.489807
2019-03-25T20:14:49.481Z,5.26825
2019-03-25T20:20:12.564Z,5.348816
2019-03-25T20:25:36.402Z,5.379028
2019-03-25T20:30:59.137Z,5.26825
2019-03-25T20:36:21.872Z,5.379028
2019-03-25T20:41:44.635Z,5.187683
2019-03-25T20:47:07.489Z,5.137329
2019-03-25T20:52:30.530Z,5.086975
2019-03-25T20:57:53.079Z,4.935913
2019-03-25T21:03:15.787Z,4.865417
2019-03-25T21:08:38.442Z,4.966125
2019-03-25T21:14:01.144Z,4.986267
2019-03-25T21:19:24.086Z,5.056763
2019-03-25T21:24:46.801Z,5.187683
2019-03-25T21:30:09.567Z,5.046692
2019-03-25T21:35:32.358Z,4.986267
2019-03-25T21:40:55.001Z,4.986267
2019-03-25T21:46:17.767Z,4.935913
2019-03-25T21:51:40.475Z,5.006409
2019-03-25T21:57:04.378Z,4.966125
2019-03-25T22:02:27.030Z,4.966125
2019-03-25T22:07:49.722Z,4.956055
2019-03-25T22:13:12.445Z,4.905701
2019-03-25T22:18:35.149Z,4.986267
2019-03-25T22:23:58.322Z,4.89563
2019-03-25T22:29:21.011Z,4.855347
2019-03-25T22:34:43.811Z,4.804993
2019-03-25T22:40:06.527Z,4.694214
2019-03-25T22:45:29.215Z,4.593506
2019-03-25T22:50:52.283Z,4.533081
2019-03-25T22:56:14.957Z,4.502869
2019-03-25T23:01:38.175Z,4.351807
2019-03-25T23:07:00.928Z,4.291382
2019-03-25T23:12:23.565Z,4.361877
2019-03-25T23:17:46.186Z,4.543152
2019-03-25T23:23:08.994Z,4.613647
2019-03-25T23:28:33.233Z,4.593506
2019-03-25T23:33:55.948Z,4.563293
2019-03-25T23:39:18.687Z,4.462585
2019-03-25T23:44:41.547Z,4.472656
2019-03-25T23:50:04.259Z,4.39209
2019-03-25T23:55:26.938Z,4.321594
